Time;durP1;ratioP1;P1;durP2;ratioP2;P2;SDS_P1;SDS_P2;PMS_P1;PMS_P2;Temp;Humidity;BMP_temperature;BMP_pressure;BME280_temperature;BME280_humidity;BME280_pressure;Samples;Min_cycle;Max_cycle;Signal;HPM_P1;HPM_P2
2022/01/06 00:00:04;;;;;;;24.75;16.08;;;;;;;3.38;70.29;93995.72;5093538;28;20086;-72
2022/01/06 00:02:29;;;;;;;21.98;14.35;;;;;;;3.33;70.19;93976.28;5093319;28;20039;-72
2022/01/06 00:04:55;;;;;;;21.77;13.63;;;;;;;3.45;69.99;93981.53;5110601;28;20035;-72
2022/01/06 00:07:20;;;;;;;20.08;13.90;;;;;;;3.53;69.78;93982.63;5110146;28;20031;-72
2022/01/06 00:09:48;;;;;;;18.92;13.57;;;;;;;3.52;69.12;93978.44;5111749;28;20530;-72
2022/01/06 00:12:16;;;;;;;25.90;13.93;;;;;;;3.68;69.08;93982.53;5110143;28;20059;-72
2022/01/06 00:14:58;;;;;;;18.70;12.75;;;;;;;3.74;68.43;93971.84;5110249;28;20035;-72
2022/01/06 00:17:46;;;;;;;18.88;13.20;;;;;;;3.84;68.55;93972.81;5109891;28;20469;-72
2022/01/06 00:23:31;;;;;;;18.13;12.10;;;;;;;3.99;67.31;93973.50;5111333;28;20058;-72
2022/01/06 00:25:48;;;;;;;19.65;13.32;;;;;;;3.99;66.90;93973.50;5108020;28;20112;-72
2022/01/06 00:28:14;;;;;;;23.02;14.18;;;;;;;4.05;66.62;93965.34;5109978;28;20031;-72
2022/01/06 00:30:39;;;;;;;22.95;13.35;;;;;;;4.26;66.34;93978.44;5110933;28;20051;-72
2022/01/06 00:33:05;;;;;;;19.80;13.45;;;;;;;4.32;65.32;93959.16;5110853;28;20473;-72
2022/01/06 00:35:30;;;;;;;19.02;13.32;;;;;;;4.37;65.38;93962.22;5114086;28;20036;-72
2022/01/06 00:37:55;;;;;;;22.45;15.00;;;;;;;4.23;66.05;93970.94;5114067;28;20042;-72
2022/01/06 00:40:21;;;;;;;24.25;14.82;;;;;;;4.25;65.48;93956.22;5115185;27;20028;-72
2022/01/06 00:42:46;;;;;;;23.25;14.35;;;;;;;4.32;65.88;93972.03;5113968;28;20031;-72
2022/01/06 00:45:12;;;;;;;22.27;14.63;;;;;;;4.23;66.14;93978.66;5096896;28;20027;-72
2022/01/06 00:47:37;;;;;;;23.42;15.13;;;;;;;4.30;65.83;93974.72;5113879;28;20038;-72
2022/01/06 00:50:03;;;;;;;20.35;13.73;;;;;;;4.38;65.18;93977.56;5096831;28;20038;-72
2022/01/06 00:52:29;;;;;;;24.85;14.40;;;;;;;4.35;65.61;93982.13;5096778;28;20028;-72
2022/01/06 00:54:54;;;;;;;20.42;13.77;;;;;;;4.29;65.88;93978.22;5096915;28;20039;-72
2022/01/06 00:57:20;;;;;;;19.67;13.25;;;;;;;4.24;65.74;93964.88;5114828;28;20031;-72
2022/01/06 00:59:45;;;;;;;23.05;12.68;;;;;;;4.31;65.37;93973.78;5096875;28;20036;-72
2022/01/06 01:02:10;;;;;;;19.75;13.68;;;;;;;4.32;66.09;93998.59;5113635;28;20024;-72
2022/01/06 01:04:36;;;;;;;22.63;13.70;;;;;;;4.22;65.67;94006.09;5113747;28;20545;-72
2022/01/06 01:07:02;;;;;;;18.45;13.18;;;;;;;4.05;65.74;93943.97;5096600;28;20039;-72
2022/01/06 01:09:27;;;;;;;18.30;12.50;;;;;;;4.18;65.92;93980.72;5115003;28;20047;-72
2022/01/06 01:11:53;;;;;;;17.60;12.02;;;;;;;4.15;66.25;93986.06;5113376;28;20031;-72
2022/01/06 01:14:27;;;;;;;16.58;11.90;;;;;;;4.02;66.34;93973.28;5113476;28;20031;-72
2022/01/06 01:17:03;;;;;;;17.63;11.95;;;;;;;4.18;65.84;94006.44;5113524;28;20120;-72
2022/01/06 01:19:30;;;;;;;19.10;12.20;;;;;;;4.20;65.81;93986.59;5082373;28;20059;-72
2022/01/06 01:21:55;;;;;;;17.70;11.70;;;;;;;4.19;65.68;94003.75;5096338;28;20063;-73
2022/01/06 01:24:21;;;;;;;19.30;12.15;;;;;;;4.17;65.89;94002.22;5096306;28;20077;-72
2022/01/06 01:26:46;;;;;;;17.58;11.18;;;;;;;3.97;66.19;93981.31;5096065;28;20034;-72
2022/01/06 01:29:17;;;;;;;15.60;11.35;;;;;;;4.01;66.19;94016.16;5113143;28;20401;-72
2022/01/06 01:31:46;;;;;;;21.23;11.60;;;;;;;4.12;65.77;93973.44;5097055;28;20558;-72
2022/01/06 01:34:13;;;;;;;16.75;10.93;;;;;;;4.13;65.89;93983.63;5079940;28;20526;-72
2022/01/06 01:36:39;;;;;;;15.98;11.05;;;;;;;4.05;66.14;94001.34;5096108;28;20119;-72
2022/01/06 01:39:04;;;;;;;19.13;11.02;;;;;;;4.10;65.46;93975.31;5112922;28;20568;-72
2022/01/06 01:41:30;;;;;;;17.55;11.05;;;;;;;4.16;65.20;93987.75;5112847;28;20028;-72
2022/01/06 01:43:55;;;;;;;15.90;11.05;;;;;;;3.97;65.91;93986.44;5112857;28;20108;-72
2022/01/06 01:46:28;;;;;;;15.55;10.40;;;;;;;4.18;65.14;93970.44;5112155;28;20028;-72
2022/01/06 01:49:14;;;;;;;16.38;10.85;;;;;;;4.14;65.50;93976.75;5113847;28;20497;-72
2022/01/06 01:51:42;;;;;;;17.70;11.15;;;;;;;4.17;65.18;93979.91;5098572;28;20035;-72
2022/01/06 01:54:08;;;;;;;16.58;10.90;;;;;;;4.17;65.41;93974.75;5112849;28;20032;-72
2022/01/06 01:56:33;;;;;;;20.08;11.60;;;;;;;4.12;65.46;93981.16;5095699;28;20031;-72
2022/01/06 01:58:59;;;;;;;18.17;11.68;;;;;;;4.24;64.88;93964.88;5095617;28;20994;-72
2022/01/06 02:01:24;;;;;;;20.05;12.57;;;;;;;4.12;65.37;93969.13;5095494;28;20020;-72
2022/01/06 02:03:49;;;;;;;15.98;10.63;;;;;;;3.99;65.24;93940.91;5095549;28;20085;-72
2022/01/06 02:06:15;;;;;;;17.60;12.27;;;;;;;4.09;65.73;93969.34;5112339;28;20038;-72
2022/01/06 02:08:40;;;;;;;16.23;10.85;;;;;;;3.93;65.55;93969.63;5095297;28;20035;-72
2022/01/06 02:11:06;;;;;;;17.58;10.93;;;;;;;4.10;65.50;93990.75;5112311;28;20429;-72
2022/01/06 02:13:31;;;;;;;15.15;9.80;;;;;;;4.08;65.53;93965.13;5113549;28;20435;-72
2022/01/06 02:15:59;;;;;;;14.73;10.63;;;;;;;4.11;65.45;93972.63;5113460;28;20031;-72
2022/01/06 02:18:24;;;;;;;13.52;9.50;;;;;;;4.10;65.17;93968.44;5112003;28;20030;-72
2022/01/06 02:20:50;;;;;;;15.45;10.60;;;;;;;4.13;64.75;93967.41;5113323;28;20039;-72
2022/01/06 02:23:15;;;;;;;15.70;9.45;;;;;;;4.24;64.00;93952.03;5095148;28;20474;-72
2022/01/06 02:25:41;;;;;;;14.20;10.18;;;;;;;4.30;64.38;93967.00;5094926;28;20035;-72
2022/01/06 02:28:06;;;;;;;15.25;9.90;;;;;;;4.19;64.83;93972.09;5095082;28;20031;-72
2022/01/06 02:30:33;;;;;;;13.95;10.30;;;;;;;4.03;65.08;93965.44;5094587;28;20069;-72
2022/01/06 02:33:00;;;;;;;17.65;11.88;;;;;;;4.02;64.98;93945.03;5111948;28;20038;-72
2022/01/06 02:35:26;;;;;;;18.05;10.77;;;;;;;4.13;64.84;93993.91;5095168;28;20455;-72
2022/01/06 02:37:51;;;;;;;17.58;10.95;;;;;;;3.98;64.83;93967.56;5111760;28;20023;-72
2022/01/06 02:40:18;;;;;;;17.35;10.95;;;;;;;3.18;66.20;93913.19;5111581;28;20067;-72
2022/01/06 02:42:47;;;;;;;18.27;11.73;;;;;;;3.75;66.38;94010.25;5112898;27;20077;-72
2022/01/06 02:45:12;;;;;;;18.75;11.43;;;;;;;3.67;66.07;93963.72;5111600;28;20432;-72
2022/01/06 02:47:38;;;;;;;20.10;11.65;;;;;;;3.57;66.82;94007.19;5111518;28;20028;-72
2022/01/06 02:50:04;;;;;;;20.83;14.43;;;;;;;3.44;67.21;94008.13;5111408;28;20077;-72
2022/01/06 02:52:30;;;;;;;18.08;11.48;;;;;;;3.34;67.20;94001.06;5111399;28;20481;-72
2022/01/06 02:54:55;;;;;;;17.30;11.40;;;;;;;3.54;66.94;94015.13;5111598;28;20031;-72
2022/01/06 02:57:21;;;;;;;15.70;10.88;;;;;;;3.47;67.20;94006.19;5110374;28;20035;-72
2022/01/06 02:59:46;;;;;;;15.55;10.38;;;;;;;3.60;66.42;93969.41;5094535;28;20417;-72
2022/01/06 03:02:12;;;;;;;19.00;11.07;;;;;;;3.61;66.25;94007.00;5111356;28;20057;-72
2022/01/06 03:04:37;;;;;;;16.50;10.90;;;;;;;3.53;66.98;94000.63;5112405;28;20035;-72
2022/01/06 03:07:03;;;;;;;16.17;10.85;;;;;;;3.58;66.59;93978.00;5111317;28;20024;-71
2022/01/06 03:09:37;;;;;;;18.88;11.10;;;;;;;3.63;66.50;94003.41;5094198;28;20031;-72
2022/01/06 03:12:11;;;;;;;15.13;10.55;;;;;;;3.51;66.59;93992.22;5111291;28;20046;-72
2022/01/06 03:14:37;;;;;;;14.68;10.68;;;;;;;3.51;66.88;93986.22;5095004;28;20043;-72
2022/01/06 03:17:05;;;;;;;18.58;11.07;;;;;;;3.61;66.49;93997.53;5111021;28;20062;-72
2022/01/06 03:19:31;;;;;;;14.40;9.82;;;;;;;3.57;66.86;94002.06;5111026;28;20061;-72
2022/01/06 03:21:56;;;;;;;14.18;9.88;;;;;;;3.69;65.99;93989.31;5093874;28;20478;-72
2022/01/06 03:24:22;;;;;;;16.00;9.82;;;;;;;3.66;66.59;94007.50;5093974;28;20032;-72
2022/01/06 03:26:47;;;;;;;16.08;10.25;;;;;;;3.54;67.23;93996.31;5110853;28;20039;-72
2022/01/06 03:29:13;;;;;;;14.15;9.65;;;;;;;3.54;66.75;93998.91;5110831;28;20032;-72
2022/01/06 03:31:39;;;;;;;15.13;9.85;;;;;;;3.55;66.64;94005.66;5112038;28;20502;-72
2022/01/06 03:34:04;;;;;;;16.58;11.10;;;;;;;3.31;67.49;93978.13;5110481;28;20031;-72
2022/01/06 03:36:29;;;;;;;15.13;9.98;;;;;;;3.43;67.64;94004.75;5111892;28;20076;-72
2022/01/06 03:38:55;;;;;;;14.93;10.07;;;;;;;3.45;66.87;93987.47;5110589;28;20031;-72
2022/01/06 03:41:21;;;;;;;17.25;9.88;;;;;;;3.62;66.04;93994.03;5111845;28;20024;-72
2022/01/06 03:43:46;;;;;;;16.83;9.90;;;;;;;3.58;66.44;93988.28;5110533;28;20035;-72
2022/01/06 03:46:11;;;;;;;14.63;9.57;;;;;;;3.50;66.60;93998.25;5110525;28;20020;-72
2022/01/06 03:48:37;;;;;;;14.63;10.15;;;;;;;3.43;66.78;93999.63;5093415;28;20050;-72
2022/01/06 03:51:02;;;;;;;15.95;9.88;;;;;;;3.40;67.12;93989.56;5111683;28;20028;-72
2022/01/06 03:53:28;;;;;;;17.48;10.38;;;;;;;3.32;67.13;94022.63;5111659;28;20035;-72
2022/01/06 03:55:53;;;;;;;16.45;10.65;;;;;;;3.09;68.46;94006.16;5093371;28;20024;-72
2022/01/06 03:58:18;;;;;;;16.75;10.02;;;;;;;3.07;68.56;94010.59;5093233;28;20031;-72
2022/01/06 04:00:44;;;;;;;16.05;10.63;;;;;;;3.09;68.59;94021.56;5093293;28;20446;-72
2022/01/06 04:03:09;;;;;;;15.77;10.25;;;;;;;2.99;68.61;94005.16;5111515;28;20028;-72
2022/01/06 04:05:35;;;;;;;14.60;8.95;;;;;;;3.12;68.15;94001.69;5110103;28;20027;-72
2022/01/06 04:08:00;;;;;;;11.77;8.52;;;;;;;3.26;67.80;94018.72;5092968;28;20118;-72
2022/01/06 04:10:26;;;;;;;16.88;9.43;;;;;;;3.27;68.10;94009.28;5110177;28;20076;-72
2022/01/06 04:12:51;;;;;;;14.45;8.60;;;;;;;3.27;67.75;93997.25;5110139;28;20023;-72
2022/01/06 04:15:17;;;;;;;13.52;8.82;;;;;;;3.27;67.60;94015.22;5076522;28;20467;-72
2022/01/06 04:17:42;;;;;;;12.15;8.15;;;;;;;3.25;68.12;94005.97;5111197;28;20031;-72
2022/01/06 04:20:09;;;;;;;22.25;12.88;;;;;;;3.29;68.04;94007.44;5093065;28;20036;-72
2022/01/06 04:22:35;;;;;;;20.02;11.93;;;;;;;3.35;67.81;94017.28;5093075;28;20057;-72
2022/01/06 04:25:00;;;;;;;17.58;11.13;;;;;;;3.34;68.00;94000.22;5110194;28;20031;-72
2022/01/06 04:27:26;;;;;;;13.27;8.95;;;;;;;3.38;68.25;94006.81;5110306;28;20028;-72
2022/01/06 04:29:51;;;;;;;14.90;9.10;;;;;;;3.27;68.20;94022.09;5092951;28;20497;-72
2022/01/06 04:32:17;;;;;;;13.70;8.63;;;;;;;3.21;68.38;94013.06;5110006;28;20463;-72
2022/01/06 04:34:42;;;;;;;13.55;8.35;;;;;;;3.35;68.47;94017.28;5110049;28;20500;-72
2022/01/06 04:37:07;;;;;;;12.75;9.48;;;;;;;3.27;68.80;94027.25;5111144;28;20482;-72
2022/01/06 04:39:33;;;;;;;14.50;9.35;;;;;;;3.31;68.69;94031.25;5109939;28;20111;-72
2022/01/06 04:41:58;;;;;;;17.88;11.55;;;;;;;2.99;68.97;94029.06;5111077;28;20031;-72
2022/01/06 04:44:24;;;;;;;15.77;10.20;;;;;;;2.78;69.96;94033.03;5109925;28;20035;-72
2022/01/06 04:46:49;;;;;;;13.75;9.18;;;;;;;2.95;69.37;94030.16;5109827;28;20031;-72
2022/01/06 04:49:15;;;;;;;24.10;14.48;;;;;;;2.90;69.34;94037.38;5109841;28;20024;-72
2022/01/06 04:51:40;;;;;;;22.77;12.75;;;;;;;2.85;69.56;94044.53;5092889;28;20036;-72
2022/01/06 04:54:05;;;;;;;13.93;8.38;;;;;;;2.98;69.32;94039.41;5092769;28;20032;-72
2022/01/06 04:56:36;;;;;;;17.77;11.60;;;;;;;2.94;69.21;94043.94;5092866;28;20036;-72
2022/01/06 04:59:03;;;;;;;18.77;11.90;;;;;;;2.82;69.48;94047.31;5109767;28;20480;-72
2022/01/06 05:01:28;;;;;;;12.73;8.63;;;;;;;2.89;68.72;94048.53;5092829;28;20125;-72
2022/01/06 05:03:54;;;;;;;15.32;10.20;;;;;;;2.96;68.72;94051.53;5111041;28;20472;-72
2022/01/06 05:06:19;;;;;;;23.30;13.40;;;;;;;2.82;69.36;94060.13;5092667;28;20031;-72
2022/01/06 05:08:44;;;;;;;12.40;8.80;;;;;;;2.57;69.59;94056.56;5092730;28;20024;-72
2022/01/06 05:11:10;;;;;;;13.50;8.00;;;;;;;2.45;69.66;94057.31;5109633;28;20046;-72
2022/01/06 05:13:35;;;;;;;11.63;7.75;;;;;;;2.59;69.41;94065.00;5109496;28;20410;-72
2022/01/06 05:16:01;;;;;;;11.68;7.82;;;;;;;2.61;70.04;94050.31;5092499;28;20031;-72
2022/01/06 05:18:26;;;;;;;14.88;9.70;;;;;;;2.29;70.30;94049.81;5075515;28;20035;-72
2022/01/06 05:20:51;;;;;;;13.80;7.68;;;;;;;2.28;70.72;94037.06;5111544;28;20090;-72
2022/01/06 05:23:19;;;;;;;11.10;7.50;;;;;;;2.43;70.69;94056.63;5079258;28;20513;-72
2022/01/06 05:25:44;;;;;;;12.18;8.20;;;;;;;2.29;71.04;94036.16;5096369;28;20043;-72
2022/01/06 05:28:10;;;;;;;12.88;8.40;;;;;;;2.59;69.71;94041.91;5095981;28;20023;-72
2022/01/06 05:30:35;;;;;;;12.82;7.63;;;;;;;2.74;69.18;94052.94;5095928;28;20050;-72
2022/01/06 05:33:01;;;;;;;10.52;7.15;;;;;;;2.78;69.12;94050.97;5114353;28;20027;-72
2022/01/06 05:35:26;;;;;;;13.35;7.70;;;;;;;2.72;69.75;94051.38;5095853;28;20024;-72
2022/01/06 05:37:51;;;;;;;11.77;7.68;;;;;;;2.85;68.93;94050.50;5095909;28;20027;-72
2022/01/06 05:40:17;;;;;;;11.90;7.85;;;;;;;2.84;68.73;94058.28;5114173;28;20031;-72
2022/01/06 05:42:42;;;;;;;13.43;8.35;;;;;;;2.79;68.96;94060.34;5112865;28;20024;-72
2022/01/06 05:45:08;;;;;;;26.60;15.73;;;;;;;2.54;69.92;94073.91;5095840;28;20035;-72
2022/01/06 05:47:34;;;;;;;21.38;13.57;;;;;;;2.52;70.00;94084.25;5112846;28;20050;-72
2022/01/06 05:49:59;;;;;;;14.20;7.93;;;;;;;2.64;69.50;94069.81;5078949;28;20063;-72
2022/01/06 05:52:24;;;;;;;12.45;8.38;;;;;;;2.73;69.10;94050.44;5095714;28;20148;-72
2022/01/06 05:54:50;;;;;;;14.75;9.43;;;;;;;2.77;69.01;94075.81;5095789;28;20104;-72
2022/01/06 05:57:16;;;;;;;12.68;8.35;;;;;;;2.69;69.70;94060.91;5078687;28;20032;-72
2022/01/06 05:59:42;;;;;;;14.02;8.75;;;;;;;2.74;69.17;94054.66;5078813;28;20470;-72
2022/01/06 06:02:07;;;;;;;14.00;8.93;;;;;;;2.81;68.44;94054.16;5112548;28;20038;-73
2022/01/06 06:04:32;;;;;;;15.75;9.30;;;;;;;2.90;68.16;94047.63;5114051;28;20024;-72
2022/01/06 06:06:58;;;;;;;12.77;9.82;;;;;;;2.87;69.14;94073.47;5095408;28;20493;-72
2022/01/06 06:09:23;;;;;;;12.60;8.25;;;;;;;2.73;69.13;94055.56;5112474;28;20485;-72
2022/01/06 06:11:49;;;;;;;12.43;7.40;;;;;;;2.88;68.53;94060.56;5113613;28;20049;-72
2022/01/06 06:14:14;;;;;;;10.65;6.82;;;;;;;2.85;69.00;94067.63;5112411;28;20078;-72
2022/01/06 06:16:40;;;;;;;10.48;7.43;;;;;;;2.83;69.19;94056.63;5095300;28;20023;-72
2022/01/06 06:19:05;;;;;;;10.70;7.10;;;;;;;2.84;69.34;94065.97;5095261;28;20035;-72
2022/01/06 06:21:30;;;;;;;11.98;7.13;;;;;;;2.94;68.67;94054.19;5095110;28;20035;-72
2022/01/06 06:23:56;;;;;;;11.00;7.13;;;;;;;2.96;68.56;94070.31;5095190;28;20051;-72
2022/01/06 06:26:21;;;;;;;11.57;7.75;;;;;;;2.78;68.29;94079.19;5112054;28;20425;-72
2022/01/06 06:28:47;;;;;;;12.38;7.63;;;;;;;2.92;67.99;94063.72;5113356;28;20019;-72
2022/01/06 06:31:12;;;;;;;12.07;7.22;;;;;;;2.96;68.28;94070.31;5095120;28;20055;-72
2022/01/06 06:33:38;;;;;;;11.02;7.15;;;;;;;2.84;68.39;94056.56;5094882;28;20031;-72
2022/01/06 06:36:04;;;;;;;10.13;6.63;;;;;;;2.91;68.76;94067.22;5111931;28;20465;-72
2022/01/06 06:38:29;;;;;;;22.20;10.63;;;;;;;3.01;68.72;94080.28;5111797;28;20038;-72
2022/01/06 06:40:54;;;;;;;12.00;7.50;;;;;;;2.82;69.21;94075.53;5113006;28;20032;-72
2022/01/06 06:43:20;;;;;;;10.27;7.10;;;;;;;2.85;68.33;94071.00;5111650;28;20028;-72
2022/01/06 06:45:45;;;;;;;10.02;6.93;;;;;;;2.92;68.57;94066.28;5094598;28;20019;-72
2022/01/06 06:48:11;;;;;;;8.38;6.47;;;;;;;3.00;68.91;94084.59;5112863;28;20035;-72
2022/01/06 06:50:37;;;;;;;10.85;6.85;;;;;;;3.04;68.51;94088.63;5077794;28;20031;-72
2022/01/06 06:53:02;;;;;;;10.60;7.00;;;;;;;2.92;68.28;94076.56;5111517;28;20027;-72
2022/01/06 06:55:28;;;;;;;9.63;6.25;;;;;;;3.03;68.11;94089.50;5111425;28;20046;-72
2022/01/06 06:57:54;;;;;;;12.35;7.20;;;;;;;3.08;68.40;94102.88;5094418;28;20028;-72
2022/01/06 07:00:19;;;;;;;17.33;9.77;;;;;;;2.82;69.51;94096.06;5111342;28;20032;-72
2022/01/06 07:02:45;;;;;;;11.80;7.72;;;;;;;2.75;69.66;94089.66;5094387;28;20031;-72
2022/01/06 07:05:11;;;;;;;9.65;6.38;;;;;;;2.90;68.91;94097.19;5111248;28;20474;-72
2022/01/06 07:07:36;;;;;;;11.13;6.05;;;;;;;3.00;69.14;94115.38;5094255;28;20020;-72
2022/01/06 07:10:03;;;;;;;11.43;8.32;;;;;;;2.94;69.41;94107.25;5094001;28;20036;-72
2022/01/06 07:12:30;;;;;;;16.50;10.13;;;;;;;2.96;69.19;94108.81;5111005;28;20417;-72
2022/01/06 07:14:56;;;;;;;13.50;8.45;;;;;;;2.91;69.38;94095.44;5111281;28;20038;-72
2022/01/06 07:17:21;;;;;;;11.88;7.63;;;;;;;2.90;69.96;94096.38;5112110;28;20414;-72
2022/01/06 07:19:47;;;;;;;10.95;7.65;;;;;;;2.99;69.72;94098.34;5112575;28;20038;-72
2022/01/06 07:22:12;;;;;;;12.70;8.07;;;;;;;3.12;69.24;94106.91;5093925;28;20501;-72
2022/01/06 07:24:38;;;;;;;12.93;8.10;;;;;;;2.91;69.71;94108.28;5093990;28;20040;-72
2022/01/06 07:27:04;;;;;;;12.10;8.23;;;;;;;3.03;69.81;94116.94;5077103;28;20032;-72
2022/01/06 07:29:29;;;;;;;12.40;7.72;;;;;;;3.10;69.22;94108.75;5112067;28;20032;-72
2022/01/06 07:31:54;;;;;;;14.15;7.60;;;;;;;3.13;69.41;94116.25;5110833;28;20042;-72
2022/01/06 07:34:20;;;;;;;12.70;7.55;;;;;;;3.24;69.45;94122.44;5112191;28;20038;-72
2022/01/06 07:36:45;;;;;;;11.05;7.65;;;;;;;3.34;68.99;94128.59;5110642;28;20024;-72
2022/01/06 07:39:11;;;;;;;11.32;7.57;;;;;;;3.27;69.43;94123.03;5110552;28;20039;-72
2022/01/06 07:41:36;;;;;;;14.98;9.60;;;;;;;3.38;69.72;94111.25;5076730;28;20054;-72
2022/01/06 07:44:06;;;;;;;11.25;8.27;;;;;;;3.53;69.14;94135.91;5109943;28;20081;-72
2022/01/06 07:46:31;;;;;;;12.27;7.50;;;;;;;3.41;69.19;94123.91;5077958;28;20035;-72
2022/01/06 07:48:57;;;;;;;11.18;8.20;;;;;;;3.62;68.72;94126.78;5076658;28;20097;-72
2022/01/06 07:51:24;;;;;;;12.48;7.55;;;;;;;3.77;68.02;94118.06;5110407;28;20524;-72
2022/01/06 07:53:49;;;;;;;16.35;10.57;;;;;;;4.05;67.71;94131.63;5076489;28;20118;-72
2022/01/06 07:56:14;;;;;;;11.88;7.78;;;;;;;4.35;66.47;94139.78;5111587;28;20080;-72
2022/01/06 07:58:40;;;;;;;11.68;8.23;;;;;;;4.42;66.21;94132.47;5093226;28;20047;-72
2022/01/06 08:01:05;;;;;;;12.07;7.93;;;;;;;4.09;66.28;94130.47;5110320;28;20023;-72
2022/01/06 08:03:31;;;;;;;12.18;8.13;;;;;;;4.21;66.98;94153.59;5111508;28;20413;-72
2022/01/06 08:05:56;;;;;;;11.10;7.35;;;;;;;4.21;67.68;94151.03;5111789;28;20039;-72
2022/01/06 08:08:21;;;;;;;12.13;7.78;;;;;;;4.23;67.98;94148.34;5092987;28;20032;-72
2022/01/06 08:10:47;;;;;;;13.00;8.23;;;;;;;4.34;67.19;94140.72;5093264;28;20036;-72
2022/01/06 08:13:12;;;;;;;13.18;7.30;;;;;;;4.53;66.92;94152.31;5093190;28;20451;-72
2022/01/06 08:15:38;;;;;;;11.38;7.15;;;;;;;4.24;67.68;94144.84;5110047;28;20039;-72
2022/01/06 08:18:03;;;;;;;11.32;7.15;;;;;;;4.01;68.70;94136.97;5110010;28;20506;-72
2022/01/06 08:20:29;;;;;;;13.52;7.20;;;;;;;4.30;68.06;94151.31;5110013;28;20100;-72
2022/01/06 08:22:54;;;;;;;11.10;6.47;;;;;;;4.53;66.33;94150.53;5111271;28;20015;-72
2022/01/06 08:25:19;;;;;;;10.98;7.60;;;;;;;4.72;66.25;94150.09;5093285;28;20036;-72
2022/01/06 08:27:45;;;;;;;16.30;10.70;;;;;;;4.36;67.98;94144.00;5092970;28;20020;-72
2022/01/06 08:30:11;;;;;;;17.48;10.65;;;;;;;4.38;68.06;94146.47;5110928;28;20104;-72
2022/01/06 08:32:36;;;;;;;17.30;11.10;;;;;;;4.54;67.71;94154.78;5093091;28;20032;-72
2022/01/06 08:35:02;;;;;;;16.70;10.10;;;;;;;4.71;67.92;94145.88;5093223;28;20485;-72
2022/01/06 08:37:27;;;;;;;21.30;12.13;;;;;;;4.85;67.08;94140.56;5109775;28;20063;-73
2022/01/06 08:39:53;;;;;;;20.83;12.05;;;;;;;4.96;66.99;94126.94;5109660;28;20509;-72
2022/01/06 08:42:18;;;;;;;18.02;10.88;;;;;;;5.27;67.01;94135.84;5109784;28;20413;-72
2022/01/06 08:44:44;;;;;;;15.35;10.95;;;;;;;5.47;66.78;94162.72;5111407;28;20035;-72
2022/01/06 08:47:10;;;;;;;18.33;9.85;;;;;;;5.64;66.46;94143.44;5109737;28;20032;-73
2022/01/06 08:49:35;;;;;;;18.45;10.23;;;;;;;5.95;64.11;94146.34;5109883;28;20046;-73
2022/01/06 08:52:01;;;;;;;17.13;10.05;;;;;;;5.93;65.17;94153.34;5092866;28;20028;-75
2022/01/06 08:54:26;;;;;;;15.50;10.65;;;;;;;6.14;64.26;94151.75;5092649;28;20051;-73
2022/01/06 08:56:52;;;;;;;19.98;12.52;;;;;;;6.21;61.84;94141.78;5079569;28;20085;-73
2022/01/06 08:59:17;;;;;;;18.25;11.82;;;;;;;6.32;61.94;94139.19;5115107;28;20043;-72
2022/01/06 09:01:43;;;;;;;15.18;10.77;;;;;;;6.39;61.67;94140.38;5113712;28;20036;-73
2022/01/06 09:04:08;;;;;;;18.77;10.70;;;;;;;6.64;61.83;94144.47;5096655;28;20477;-73
2022/01/06 09:06:34;;;;;;;15.52;10.13;;;;;;;6.73;62.83;94137.75;5096720;28;20035;-72
2022/01/06 09:08:59;;;;;;;22.88;13.63;;;;;;;6.68;62.04;94138.13;5096360;28;20024;-73
2022/01/06 09:11:24;;;;;;;26.00;15.00;;;;;;;6.99;60.94;94134.88;5114735;28;20028;-73
2022/01/06 09:13:50;;;;;;;24.10;13.05;;;;;;;7.25;61.15;94143.97;5096520;28;20039;-73
2022/01/06 09:16:15;;;;;;;20.80;12.32;;;;;;;7.49;60.25;94124.81;5079470;28;20449;-73
2022/01/06 09:18:41;;;;;;;30.15;16.30;;;;;;;7.49;60.18;94123.06;5114660;28;20507;-73
2022/01/06 09:21:07;;;;;;;29.27;16.33;;;;;;;7.61;59.34;94123.84;5079459;28;20520;-73
2022/01/06 09:23:32;;;;;;;26.08;15.05;;;;;;;7.81;59.78;94122.19;5113122;28;20073;-73
2022/01/06 09:25:58;;;;;;;25.58;15.55;;;;;;;8.03;59.85;94119.47;5079264;28;20096;-73
2022/01/06 09:28:23;;;;;;;23.45;14.60;;;;;;;8.07;59.78;94109.66;5096106;28;20028;-73
2022/01/06 09:30:51;;;;;;;30.73;18.52;;;;;;;8.26;58.60;94107.16;5096136;28;20052;-73
2022/01/06 09:33:18;;;;;;;27.20;17.27;;;;;;;8.44;59.19;94109.16;5113156;28;20382;-72
2022/01/06 09:35:44;;;;;;;31.30;16.85;;;;;;;8.33;57.52;94094.53;5079351;28;20031;-73
2022/01/06 09:38:10;;;;;;;25.42;14.75;;;;;;;8.67;57.62;94092.47;5095945;28;20493;-72
2022/01/06 09:40:35;;;;;;;53.50;25.33;;;;;;;8.83;56.60;94076.44;5112889;28;20087;-72
2022/01/06 09:43:00;;;;;;;49.85;24.90;;;;;;;8.95;56.98;94084.91;5095857;28;20054;-73
2022/01/06 09:45:27;;;;;;;34.25;20.13;;;;;;;9.12;57.43;94078.22;5112722;28;20569;-73
2022/01/06 09:47:52;;;;;;;27.77;15.35;;;;;;;9.20;56.47;94062.81;5112839;28;20148;-73
2022/01/06 09:50:18;;;;;;;31.77;18.38;;;;;;;9.34;56.72;94067.56;5095831;28;20110;-73
2022/01/06 09:52:43;;;;;;;26.85;15.50;;;;;;;9.49;57.11;94074.94;5113865;28;20027;-72
2022/01/06 09:55:09;;;;;;;26.45;13.60;;;;;;;9.70;56.38;94060.03;5112600;28;20582;-73
2022/01/06 09:57:35;;;;;;;27.60;14.23;;;;;;;9.90;55.91;94057.38;5112560;28;20490;-73
2022/01/06 10:00:01;;;;;;;12.90;7.07;;;;;;;10.15;52.48;94064.53;5112645;28;20027;-72
2022/01/06 10:02:33;;;;;;;22.55;11.98;;;;;;;10.29;53.49;94082.25;5095595;28;20027;-72
2022/01/06 10:04:59;;;;;;;25.42;14.10;;;;;;;10.38;53.17;94079.78;5112685;28;20031;-73
2022/01/06 10:07:25;;;;;;;25.33;13.35;;;;;;;10.55;52.40;94085.97;5111943;28;20042;-74
2022/01/06 10:09:50;;;;;;;24.50;13.25;;;;;;;10.63;52.52;94092.06;5095532;28;20069;-73
2022/01/06 10:12:16;;;;;;;25.23;14.30;;;;;;;10.68;51.96;94089.88;5113610;28;20429;-73
2022/01/06 10:14:46;;;;;;;29.88;15.02;;;;;;;10.48;53.12;94083.97;5112439;28;20106;-73
2022/01/06 10:17:16;;;;;;;25.10;14.18;;;;;;;10.73;52.85;94087.66;5095487;28;20034;-73
2022/01/06 10:19:43;;;;;;;25.13;15.00;;;;;;;10.89;52.30;94088.78;5112296;28;20031;-73
2022/01/06 10:22:12;;;;;;;22.08;14.70;;;;;;;10.91;52.59;94090.28;5095342;28;20095;-73
2022/01/06 10:24:37;;;;;;;27.85;14.13;;;;;;;10.97;52.83;94083.66;5112223;28;20027;-72
2022/01/06 10:27:06;;;;;;;25.63;13.43;;;;;;;10.94;50.75;94078.78;5113327;28;20490;-72
2022/01/06 10:29:44;;;;;;;22.02;12.38;;;;;;;10.86;51.68;94063.91;5095115;28;20028;-73
2022/01/06 10:32:12;;;;;;;22.30;12.35;;;;;;;11.21;52.76;94077.91;5097079;28;20036;-73
2022/01/06 10:34:40;;;;;;;23.58;13.70;;;;;;;11.30;51.71;94081.38;5078063;28;20074;-73
2022/01/06 10:37:25;;;;;;;21.38;12.70;;;;;;;11.48;51.93;94090.00;5095058;28;20031;-73
2022/01/06 10:39:52;;;;;;;19.40;12.07;;;;;;;11.61;51.33;94081.81;5111855;28;20035;-73
2022/01/06 10:42:28;;;;;;;20.42;11.80;;;;;;;11.61;48.18;94064.41;5094962;28;20400;-73
2022/01/06 10:45:03;;;;;;;20.63;10.60;;;;;;;12.08;47.07;94060.69;5095061;28;20474;-73
2022/01/06 10:47:31;;;;;;;10.82;5.72;;;;;;;12.37;43.88;94060.34;5096127;28;20040;-73
2022/01/06 10:50:09;;;;;;;9.60;3.75;;;;;;;12.54;42.73;94056.03;5094577;28;20059;-73
2022/01/06 10:52:35;;;;;;;6.63;3.33;;;;;;;12.61;41.60;94057.00;5112824;28;20553;-72
2022/01/06 10:55:17;;;;;;;6.45;3.70;;;;;;;12.71;43.25;94062.09;5111661;28;20042;-73
2022/01/06 10:57:57;;;;;;;10.60;5.03;;;;;;;12.85;42.76;94052.88;5112597;28;20055;-73
2022/01/06 11:00:25;;;;;;;7.18;3.28;;;;;;;13.11;41.02;94055.34;5111357;28;20043;-73
2022/01/06 11:02:50;;;;;;;6.55;3.35;;;;;;;13.38;40.15;94054.28;5077633;28;20023;-73
2022/01/06 11:05:16;;;;;;;8.77;3.13;;;;;;;13.46;41.23;94059.50;5094183;28;20413;-73
2022/01/06 11:07:41;;;;;;;7.18;3.58;;;;;;;13.45;38.93;94046.59;5111252;28;20493;-73
2022/01/06 11:10:15;;;;;;;8.82;3.50;;;;;;;13.63;40.29;94047.25;5094267;28;20028;-72
2022/01/06 11:12:40;;;;;;;7.55;3.42;;;;;;;13.59;39.11;94051.16;5079417;28;20118;-72
2022/01/06 11:15:07;;;;;;;6.82;3.00;;;;;;;13.75;39.43;94035.50;5111071;28;20063;-73
2022/01/06 11:17:32;;;;;;;8.18;3.25;;;;;;;13.76;39.80;94047.59;5110240;28;20050;-74
2022/01/06 11:19:58;;;;;;;7.95;2.92;;;;;;;13.76;37.94;94036.31;5094148;28;20536;-73
2022/01/06 11:22:24;;;;;;;6.35;3.00;;;;;;;13.98;39.12;94037.41;5094003;28;20046;-73
2022/01/06 11:24:57;;;;;;;8.18;3.22;;;;;;;14.09;38.05;94043.09;5112550;28;20466;-73
2022/01/06 11:27:30;;;;;;;8.10;2.97;;;;;;;14.04;38.44;94047.19;5110832;28;20039;-73